sensor_id;sensor_type;location;lat;lon;timestamp;pressure;altitude;pressure_sealevel;temperature;humidity
34205;BME280;20471;49.680;20.074;2023-06-26T01:07:44;97269.38;;;14.28;75.58
34205;BME280;20471;49.680;20.074;2023-06-26T01:10:12;97267.09;;;14.18;75.19
34205;BME280;20471;49.680;20.074;2023-06-26T01:13:27;97265.11;;;14.07;75.31
34205;BME280;20471;49.680;20.074;2023-06-26T01:17:44;97267.63;;;13.83;75.51
34205;BME280;20471;49.680;20.074;2023-06-26T01:22:10;97264.39;;;13.70;75.73
34205;BME280;20471;49.680;20.074;2023-06-26T01:24:48;97262.02;;;13.59;75.87
34205;BME280;20471;49.680;20.074;2023-06-26T01:27:21;97262.77;;;13.52;75.99
34205;BME280;20471;49.680;20.074;2023-06-26T01:29:51;97262.45;;;13.46;76.09
34205;BME280;20471;49.680;20.074;2023-06-26T01:32:19;97264.46;;;13.40;76.19
34205;BME280;20471;49.680;20.074;2023-06-26T01:34:47;97259.48;;;13.33;76.29
34205;BME280;20471;49.680;20.074;2023-06-26T01:37:15;97259.73;;;13.26;76.24
34205;BME280;20471;49.680;20.074;2023-06-26T01:39:43;97260.39;;;13.20;76.33
34205;BME280;20471;49.680;20.074;2023-06-26T01:51:17;97254.65;;;13.48;75.76
34205;BME280;20471;49.680;20.074;2023-06-26T01:53:49;97254.66;;;13.40;76.06
34205;BME280;20471;49.680;20.074;2023-06-26T02:09:20;97245.18;;;13.56;75.87
34205;BME280;20471;49.680;20.074;2023-06-26T02:11:48;97250.04;;;13.40;76.10
34205;BME280;20471;49.680;20.074;2023-06-26T02:14:15;97250.58;;;13.24;76.18
34205;BME280;20471;49.680;20.074;2023-06-26T02:16:43;97253.72;;;13.10;76.40
34205;BME280;20471;49.680;20.074;2023-06-26T02:19:11;97251.29;;;12.99;76.63
34205;BME280;20471;49.680;20.074;2023-06-26T02:21:39;97245.82;;;12.93;77.06
34205;BME280;20471;49.680;20.074;2023-06-26T02:24:07;97248.66;;;12.93;77.04
34205;BME280;20471;49.680;20.074;2023-06-26T02:26:34;97249.71;;;12.90;77.09
34205;BME280;20471;49.680;20.074;2023-06-26T02:29:02;97249.21;;;12.87;77.22
34205;BME280;20471;49.680;20.074;2023-06-26T02:31:30;97251.56;;;12.79;77.18
34205;BME280;20471;49.680;20.074;2023-06-26T02:33:57;97248.65;;;12.76;77.33
34205;BME280;20471;49.680;20.074;2023-06-26T02:36:25;97252.70;;;12.76;77.42
34205;BME280;20471;49.680;20.074;2023-06-26T02:38:53;97253.77;;;12.73;77.42
34205;BME280;20471;49.680;20.074;2023-06-26T02:41:21;97253.61;;;12.72;77.45
34205;BME280;20471;49.680;20.074;2023-06-26T02:43:48;97254.91;;;12.69;77.52
34205;BME280;20471;49.680;20.074;2023-06-26T02:46:16;97255.25;;;12.66;77.54
34205;BME280;20471;49.680;20.074;2023-06-26T02:48:44;97255.48;;;12.64;77.53
34205;BME280;20471;49.680;20.074;2023-06-26T02:51:12;97252.70;;;12.63;77.45
34205;BME280;20471;49.680;20.074;2023-06-26T02:53:39;97252.27;;;12.64;77.54
34205;BME280;20471;49.680;20.074;2023-06-26T02:56:07;97256.98;;;12.63;77.57
34205;BME280;20471;49.680;20.074;2023-06-26T02:58:35;97257.91;;;12.62;77.55
34205;BME280;20471;49.680;20.074;2023-06-26T03:01:02;97256.98;;;12.60;77.47
34205;BME280;20471;49.680;20.074;2023-06-26T03:03:30;97260.33;;;12.58;77.33
34205;BME280;20471;49.680;20.074;2023-06-26T03:06:07;97256.14;;;12.55;77.38
34205;BME280;20471;49.680;20.074;2023-06-26T03:08:36;97256.98;;;12.54;77.43
34205;BME280;20471;49.680;20.074;2023-06-26T03:11:08;97256.95;;;12.53;77.51
34205;BME280;20471;49.680;20.074;2023-06-26T03:13:37;97251.05;;;12.51;77.66
34205;BME280;20471;49.680;20.074;2023-06-26T03:16:05;97249.56;;;12.50;77.76
34205;BME280;20471;49.680;20.074;2023-06-26T03:18:32;97251.10;;;12.51;77.87
34205;BME280;20471;49.680;20.074;2023-06-26T03:23:47;97252.77;;;12.54;77.74
34205;BME280;20471;49.680;20.074;2023-06-26T03:26:15;97251.59;;;12.51;77.75
34205;BME280;20471;49.680;20.074;2023-06-26T03:28:42;97251.20;;;12.49;77.74
34205;BME280;20471;49.680;20.074;2023-06-26T03:31:10;97254.36;;;12.48;77.80
34205;BME280;20471;49.680;20.074;2023-06-26T03:33:38;97249.86;;;12.46;77.80
34205;BME280;20471;49.680;20.074;2023-06-26T03:38:34;97254.92;;;12.42;77.95
34205;BME280;20471;49.680;20.074;2023-06-26T03:41:02;97251.44;;;12.41;78.00
34205;BME280;20471;49.680;20.074;2023-06-26T03:43:30;97253.14;;;12.41;78.28
34205;BME280;20471;49.680;20.074;2023-06-26T03:45:58;97254.72;;;12.41;78.36
34205;BME280;20471;49.680;20.074;2023-06-26T03:48:25;97257.91;;;12.43;78.50
34205;BME280;20471;49.680;20.074;2023-06-26T03:50:54;97259.98;;;12.44;78.52
34205;BME280;20471;49.680;20.074;2023-06-26T03:53:22;97256.96;;;12.44;78.56
34205;BME280;20471;49.680;20.074;2023-06-26T03:55:50;97259.83;;;12.44;78.71
34205;BME280;20471;49.680;20.074;2023-06-26T03:58:18;97260.31;;;12.45;78.77
34205;BME280;20471;49.680;20.074;2023-06-26T04:00:46;97260.51;;;12.47;78.89
34205;BME280;20471;49.680;20.074;2023-06-26T04:04:47;97267.04;;;12.52;79.01
34205;BME280;20471;49.680;20.074;2023-06-26T04:07:15;97266.37;;;12.53;79.17
34205;BME280;20471;49.680;20.074;2023-06-26T04:09:43;97263.31;;;12.56;79.29
34205;BME280;20471;49.680;20.074;2023-06-26T04:12:10;97263.23;;;12.60;79.26
34205;BME280;20471;49.680;20.074;2023-06-26T04:14:38;97262.65;;;12.65;79.37
34205;BME280;20471;49.680;20.074;2023-06-26T04:17:06;97262.81;;;12.67;79.33
34205;BME280;20471;49.680;20.074;2023-06-26T04:19:34;97260.90;;;12.69;79.57
34205;BME280;20471;49.680;20.074;2023-06-26T04:22:02;97259.63;;;12.71;79.50
34205;BME280;20471;49.680;20.074;2023-06-26T04:24:30;97258.14;;;12.74;79.53
34205;BME280;20471;49.680;20.074;2023-06-26T04:26:58;97255.65;;;12.76;79.51
34205;BME280;20471;49.680;20.074;2023-06-26T04:29:26;97252.93;;;12.80;79.64
34205;BME280;20471;49.680;20.074;2023-06-26T04:31:54;97253.32;;;12.84;79.81
34205;BME280;20471;49.680;20.074;2023-06-26T04:34:25;97255.66;;;12.88;79.84
34205;BME280;20471;49.680;20.074;2023-06-26T04:36:54;97259.34;;;12.92;79.93
34205;BME280;20471;49.680;20.074;2023-06-26T04:39:21;97255.19;;;12.97;80.16
34205;BME280;20471;49.680;20.074;2023-06-26T04:41:49;97254.23;;;13.01;80.05
34205;BME280;20471;49.680;20.074;2023-06-26T04:44:17;97251.14;;;13.06;80.20
34205;BME280;20471;49.680;20.074;2023-06-26T04:46:45;97251.95;;;13.11;80.36
34205;BME280;20471;49.680;20.074;2023-06-26T04:49:12;97254.29;;;13.18;80.46
34205;BME280;20471;49.680;20.074;2023-06-26T04:51:44;97251.13;;;13.23;80.45
34205;BME280;20471;49.680;20.074;2023-06-26T04:54:11;97248.31;;;13.29;80.56
34205;BME280;20471;49.680;20.074;2023-06-26T04:56:39;97247.14;;;13.36;80.63
34205;BME280;20471;49.680;20.074;2023-06-26T04:59:07;97249.03;;;13.43;80.78
34205;BME280;20471;49.680;20.074;2023-06-26T05:01:39;97249.10;;;13.49;80.72
34205;BME280;20471;49.680;20.074;2023-06-26T05:04:07;97249.95;;;13.56;80.82
34205;BME280;20471;49.680;20.074;2023-06-26T05:06:35;97252.55;;;13.62;80.94
34205;BME280;20471;49.680;20.074;2023-06-26T05:09:03;97249.96;;;13.69;81.10
34205;BME280;20471;49.680;20.074;2023-06-26T05:11:31;97249.80;;;13.77;81.19
34205;BME280;20471;49.680;20.074;2023-06-26T05:13:59;97247.85;;;13.83;81.26
34205;BME280;20471;49.680;20.074;2023-06-26T05:16:26;97244.95;;;13.91;81.34
34205;BME280;20471;49.680;20.074;2023-06-26T05:18:54;97242.23;;;14.00;81.53
34205;BME280;20471;49.680;20.074;2023-06-26T05:21:22;97242.56;;;14.08;81.73
34205;BME280;20471;49.680;20.074;2023-06-26T05:23:52;97245.66;;;14.16;81.78
34205;BME280;20471;49.680;20.074;2023-06-26T05:26:23;97246.12;;;14.25;81.69
34205;BME280;20471;49.680;20.074;2023-06-26T05:28:52;97245.13;;;14.33;81.52
34205;BME280;20471;49.680;20.074;2023-06-26T05:31:21;97243.95;;;14.41;81.43
34205;BME280;20471;49.680;20.074;2023-06-26T05:33:49;97242.61;;;14.49;81.35
34205;BME280;20471;49.680;20.074;2023-06-26T05:36:20;97240.58;;;14.59;81.60
34205;BME280;20471;49.680;20.074;2023-06-26T05:38:48;97236.59;;;14.68;81.58
34205;BME280;20471;49.680;20.074;2023-06-26T05:41:17;97237.14;;;14.77;81.48
34205;BME280;20471;49.680;20.074;2023-06-26T05:43:45;97235.52;;;14.86;81.40
34205;BME280;20471;49.680;20.074;2023-06-26T05:46:12;97231.89;;;14.95;81.35
34205;BME280;20471;49.680;20.074;2023-06-26T05:48:40;97232.84;;;15.05;81.10
34205;BME280;20471;49.680;20.074;2023-06-26T05:51:08;97231.38;;;15.14;80.89
34205;BME280;20471;49.680;20.074;2023-06-26T05:53:36;97228.04;;;15.23;80.98
34205;BME280;20471;49.680;20.074;2023-06-26T05:56:04;97228.60;;;15.32;80.96
34205;BME280;20471;49.680;20.074;2023-06-26T05:58:32;97228.66;;;15.42;80.56
34205;BME280;20471;49.680;20.074;2023-06-26T06:01:00;97224.84;;;15.51;80.53
34205;BME280;20471;49.680;20.074;2023-06-26T06:03:28;97223.44;;;15.61;80.34
34205;BME280;20471;49.680;20.074;2023-06-26T06:05:56;97218.79;;;15.73;80.12
34205;BME280;20471;49.680;20.074;2023-06-26T06:08:23;97218.91;;;15.85;80.05
34205;BME280;20471;49.680;20.074;2023-06-26T06:10:52;97215.96;;;15.95;79.98
34205;BME280;20471;49.680;20.074;2023-06-26T06:13:20;97216.25;;;16.07;79.99
34205;BME280;20471;49.680;20.074;2023-06-26T06:15:48;97219.98;;;16.17;79.81
34205;BME280;20471;49.680;20.074;2023-06-26T06:18:15;97220.70;;;16.29;79.75
34205;BME280;20471;49.680;20.074;2023-06-26T06:20:43;97219.36;;;16.39;79.62
34205;BME280;20471;49.680;20.074;2023-06-26T06:23:11;97214.80;;;16.49;79.21
34205;BME280;20471;49.680;20.074;2023-06-26T06:25:39;97215.67;;;16.58;78.60
34205;BME280;20471;49.680;20.074;2023-06-26T06:28:07;97217.86;;;16.67;78.02
34205;BME280;20471;49.680;20.074;2023-06-26T06:30:34;97216.84;;;16.75;77.66
34205;BME280;20471;49.680;20.074;2023-06-26T06:33:02;97214.88;;;16.84;77.73
34205;BME280;20471;49.680;20.074;2023-06-26T06:35:30;97211.77;;;16.96;77.59
34205;BME280;20471;49.680;20.074;2023-06-26T06:37:58;97208.01;;;17.06;76.84
34205;BME280;20471;49.680;20.074;2023-06-26T06:40:25;97208.89;;;17.18;76.77
34205;BME280;20471;49.680;20.074;2023-06-26T06:42:53;97208.30;;;17.30;76.47
34205;BME280;20471;49.680;20.074;2023-06-26T06:45:21;97204.41;;;17.40;76.04
34205;BME280;20471;49.680;20.074;2023-06-26T06:47:49;97204.77;;;17.50;75.85
34205;BME280;20471;49.680;20.074;2023-06-26T06:50:16;97207.27;;;17.63;75.49
34205;BME280;20471;49.680;20.074;2023-06-26T06:52:44;97204.22;;;17.75;75.49
34205;BME280;20471;49.680;20.074;2023-06-26T06:55:12;97203.83;;;17.89;75.01
34205;BME280;20471;49.680;20.074;2023-06-26T06:57:40;97202.73;;;18.03;74.56
34205;BME280;20471;49.680;20.074;2023-06-26T07:00:12;97206.02;;;18.15;74.00
34205;BME280;20471;49.680;20.074;2023-06-26T07:02:43;97208.11;;;18.28;73.41
34205;BME280;20471;49.680;20.074;2023-06-26T07:05:12;97210.86;;;18.41;72.94
34205;BME280;20471;49.680;20.074;2023-06-26T07:07:41;97212.96;;;18.54;72.64
34205;BME280;20471;49.680;20.074;2023-06-26T07:10:11;97213.31;;;18.69;72.63
34205;BME280;20471;49.680;20.074;2023-06-26T07:12:39;97213.30;;;18.83;71.64
34205;BME280;20471;49.680;20.074;2023-06-26T07:15:07;97210.39;;;18.94;71.20
34205;BME280;20471;49.680;20.074;2023-06-26T07:17:35;97211.07;;;19.05;70.94
34205;BME280;20471;49.680;20.074;2023-06-26T07:20:04;97211.52;;;19.16;70.22
34205;BME280;20471;49.680;20.074;2023-06-26T07:22:38;97210.23;;;19.26;69.82
34205;BME280;20471;49.680;20.074;2023-06-26T07:25:06;97205.66;;;19.39;69.70
34205;BME280;20471;49.680;20.074;2023-06-26T07:27:37;97203.65;;;19.53;70.03
34205;BME280;20471;49.680;20.074;2023-06-26T07:30:05;97203.11;;;19.66;69.64
34205;BME280;20471;49.680;20.074;2023-06-26T07:32:35;97204.11;;;19.77;68.64
34205;BME280;20471;49.680;20.074;2023-06-26T07:35:04;97200.04;;;19.86;68.25
34205;BME280;20471;49.680;20.074;2023-06-26T07:37:32;97201.34;;;19.95;67.05
34205;BME280;20471;49.680;20.074;2023-06-26T07:40:00;97202.97;;;20.05;66.72
34205;BME280;20471;49.680;20.074;2023-06-26T07:42:28;97204.65;;;20.16;65.98
34205;BME280;20471;49.680;20.074;2023-06-26T07:44:56;97204.08;;;20.26;65.19
34205;BME280;20471;49.680;20.074;2023-06-26T07:47:24;97205.00;;;20.37;64.65
34205;BME280;20471;49.680;20.074;2023-06-26T07:49:52;97205.08;;;20.50;64.83
34205;BME280;20471;49.680;20.074;2023-06-26T07:52:19;97201.45;;;20.64;64.71
34205;BME280;20471;49.680;20.074;2023-06-26T07:54:47;97203.39;;;20.76;64.53
34205;BME280;20471;49.680;20.074;2023-06-26T07:57:15;97203.09;;;20.89;63.36
34205;BME280;20471;49.680;20.074;2023-06-26T07:59:42;97201.20;;;21.03;62.33
34205;BME280;20471;49.680;20.074;2023-06-26T08:02:10;97199.66;;;21.27;61.88
34205;BME280;20471;49.680;20.074;2023-06-26T08:04:38;97197.98;;;21.62;61.56
34205;BME280;20471;49.680;20.074;2023-06-26T08:07:06;97196.56;;;22.06;61.11
34205;BME280;20471;49.680;20.074;2023-06-26T08:09:34;97193.02;;;22.54;60.36
34205;BME280;20471;49.680;20.074;2023-06-26T08:12:02;97195.45;;;23.00;60.18
34205;BME280;20471;49.680;20.074;2023-06-26T08:14:30;97200.04;;;23.40;59.35
34205;BME280;20471;49.680;20.074;2023-06-26T08:16:57;97194.79;;;23.83;58.50
34205;BME280;20471;49.680;20.074;2023-06-26T08:19:26;97191.18;;;24.30;57.21
34205;BME280;20471;49.680;20.074;2023-06-26T08:21:53;97192.73;;;24.75;56.27
34205;BME280;20471;49.680;20.074;2023-06-26T08:24:22;97192.36;;;25.19;55.55
34205;BME280;20471;49.680;20.074;2023-06-26T08:26:49;97191.40;;;25.48;55.10
34205;BME280;20471;49.680;20.074;2023-06-26T08:29:17;97191.88;;;25.82;53.99
34205;BME280;20471;49.680;20.074;2023-06-26T08:31:45;97189.92;;;26.06;52.76
34205;BME280;20471;49.680;20.074;2023-06-26T08:34:13;97188.90;;;26.43;52.13
34205;BME280;20471;49.680;20.074;2023-06-26T08:36:40;97188.72;;;26.86;51.60
34205;BME280;20471;49.680;20.074;2023-06-26T08:39:08;97187.55;;;27.24;51.01
34205;BME280;20471;49.680;20.074;2023-06-26T08:41:36;97191.66;;;27.59;49.88
34205;BME280;20471;49.680;20.074;2023-06-26T08:44:11;97186.97;;;27.97;48.74
34205;BME280;20471;49.680;20.074;2023-06-26T08:46:39;97183.81;;;28.31;48.57
34205;BME280;20471;49.680;20.074;2023-06-26T08:49:18;97179.89;;;28.58;48.21
34205;BME280;20471;49.680;20.074;2023-06-26T08:51:52;97181.55;;;28.59;47.30
34205;BME280;20471;49.680;20.074;2023-06-26T08:54:28;97179.59;;;28.22;46.96
34205;BME280;20471;49.680;20.074;2023-06-26T08:56:59;97180.67;;;27.98;46.64
34205;BME280;20471;49.680;20.074;2023-06-26T08:59:28;97183.48;;;27.93;46.16
34205;BME280;20471;49.680;20.074;2023-06-26T09:01:56;97185.10;;;27.76;46.15
34205;BME280;20471;49.680;20.074;2023-06-26T09:04:25;97182.52;;;27.55;46.45
34205;BME280;20471;49.680;20.074;2023-06-26T09:06:59;97179.95;;;27.37;46.65
34205;BME280;20471;49.680;20.074;2023-06-26T09:09:27;97174.39;;;27.42;46.69
34205;BME280;20471;49.680;20.074;2023-06-26T09:11:55;97173.77;;;27.49;46.79
34205;BME280;20471;49.680;20.074;2023-06-26T09:14:23;97169.16;;;27.32;46.16
34205;BME280;20471;49.680;20.074;2023-06-26T09:16:51;97165.73;;;27.14;45.85
34205;BME280;20471;49.680;20.074;2023-06-26T09:19:19;97167.33;;;27.14;45.96
34205;BME280;20471;49.680;20.074;2023-06-26T09:21:50;97166.48;;;27.35;46.10
34205;BME280;20471;49.680;20.074;2023-06-26T09:24:17;97168.02;;;27.72;45.09
34205;BME280;20471;49.680;20.074;2023-06-26T09:26:46;97163.52;;;28.21;44.48
34205;BME280;20471;49.680;20.074;2023-06-26T09:29:15;97156.16;;;28.55;44.05
34205;BME280;20471;49.680;20.074;2023-06-26T09:31:43;97151.98;;;28.68;43.23
34205;BME280;20471;49.680;20.074;2023-06-26T09:34:11;97159.31;;;29.10;43.32
34205;BME280;20471;49.680;20.074;2023-06-26T09:36:39;97161.85;;;29.38;42.70
34205;BME280;20471;49.680;20.074;2023-06-26T09:39:11;97162.38;;;29.65;41.69
34205;BME280;20471;49.680;20.074;2023-06-26T09:41:41;97161.98;;;29.96;41.59
34205;BME280;20471;49.680;20.074;2023-06-26T09:44:11;97154.77;;;30.21;40.57
34205;BME280;20471;49.680;20.074;2023-06-26T09:46:45;97152.61;;;30.47;40.02
34205;BME280;20471;49.680;20.074;2023-06-26T09:49:13;97148.17;;;30.68;40.31
34205;BME280;20471;49.680;20.074;2023-06-26T09:51:41;97148.35;;;30.83;39.77
34205;BME280;20471;49.680;20.074;2023-06-26T09:54:10;97148.73;;;31.09;39.01
34205;BME280;20471;49.680;20.074;2023-06-26T09:56:37;97143.48;;;31.38;38.60
34205;BME280;20471;49.680;20.074;2023-06-26T09:59:05;97146.86;;;31.50;37.90
34205;BME280;20471;49.680;20.074;2023-06-26T10:01:36;97145.96;;;31.36;37.72
34205;BME280;20471;49.680;20.074;2023-06-26T10:04:07;97148.56;;;31.19;38.14
34205;BME280;20471;49.680;20.074;2023-06-26T10:06:45;97149.56;;;31.18;38.46
34205;BME280;20471;49.680;20.074;2023-06-26T10:09:14;97145.89;;;30.71;38.01
34205;BME280;20471;49.680;20.074;2023-06-26T10:11:53;97147.48;;;30.00;38.08
34205;BME280;20471;49.680;20.074;2023-06-26T10:14:26;97144.17;;;29.42;38.04
34205;BME280;20471;49.680;20.074;2023-06-26T10:16:58;97142.03;;;29.23;38.01
34205;BME280;20471;49.680;20.074;2023-06-26T10:19:28;97134.52;;;29.40;38.08
34205;BME280;20471;49.680;20.074;2023-06-26T10:21:56;97131.71;;;29.73;38.33
34205;BME280;20471;49.680;20.074;2023-06-26T10:24:28;97129.66;;;30.11;38.04
34205;BME280;20471;49.680;20.074;2023-06-26T10:27:04;97131.29;;;30.44;37.56
34205;BME280;20471;49.680;20.074;2023-06-26T10:29:35;97127.36;;;30.67;37.06
34205;BME280;20471;49.680;20.074;2023-06-26T10:32:04;97126.77;;;30.57;36.50
34205;BME280;20471;49.680;20.074;2023-06-26T10:34:34;97123.60;;;30.26;36.10
34205;BME280;20471;49.680;20.074;2023-06-26T10:37:03;97118.93;;;29.78;36.49
34205;BME280;20471;49.680;20.074;2023-06-26T10:39:59;97116.02;;;29.36;36.62
34205;BME280;20471;49.680;20.074;2023-06-26T10:42:38;97114.49;;;29.11;36.63
34205;BME280;20471;49.680;20.074;2023-06-26T10:45:14;97113.17;;;29.20;36.59
34205;BME280;20471;49.680;20.074;2023-06-26T10:47:45;97114.28;;;29.51;36.65
34205;BME280;20471;49.680;20.074;2023-06-26T10:56:04;97103.98;;;30.25;36.56
34205;BME280;20471;49.680;20.074;2023-06-26T10:58:33;97102.44;;;30.43;36.21
34205;BME280;20471;49.680;20.074;2023-06-26T11:03:39;97104.27;;;30.71;35.58
34205;BME280;20471;49.680;20.074;2023-06-26T11:06:18;97103.79;;;30.86;35.03
34205;BME280;20471;49.680;20.074;2023-06-26T11:08:48;97103.41;;;30.99;34.72
34205;BME280;20471;49.680;20.074;2023-06-26T11:11:17;97101.60;;;31.15;34.31
34205;BME280;20471;49.680;20.074;2023-06-26T11:13:46;97102.17;;;31.29;33.99
34205;BME280;20471;49.680;20.074;2023-06-26T11:16:15;97103.33;;;31.35;33.87
34205;BME280;20471;49.680;20.074;2023-06-26T11:18:44;97102.18;;;31.39;33.75
34205;BME280;20471;49.680;20.074;2023-06-26T11:21:12;97102.84;;;31.54;34.37
34205;BME280;20471;49.680;20.074;2023-06-26T11:23:45;97099.95;;;31.54;34.75
34205;BME280;20471;49.680;20.074;2023-06-26T11:26:18;97100.75;;;31.59;34.47
34205;BME280;20471;49.680;20.074;2023-06-26T11:28:51;97092.11;;;31.52;35.12
34205;BME280;20471;49.680;20.074;2023-06-26T11:31:25;97089.42;;;31.45;35.00
34205;BME280;20471;49.680;20.074;2023-06-26T11:33:54;97093.16;;;31.53;34.54
34205;BME280;20471;49.680;20.074;2023-06-26T11:36:24;97093.52;;;31.67;34.13
34205;BME280;20471;49.680;20.074;2023-06-26T11:38:54;97094.96;;;31.79;33.49
34205;BME280;20471;49.680;20.074;2023-06-26T11:41:32;97092.61;;;31.89;33.05
34205;BME280;20471;49.680;20.074;2023-06-26T11:44:07;97090.56;;;32.00;32.36
34205;BME280;20471;49.680;20.074;2023-06-26T11:46:36;97090.39;;;32.02;32.60
34205;BME280;20471;49.680;20.074;2023-06-26T11:49:07;97090.80;;;31.96;32.36
34205;BME280;20471;49.680;20.074;2023-06-26T11:51:35;97091.16;;;32.01;32.83
34205;BME280;20471;49.680;20.074;2023-06-26T11:54:04;97091.29;;;32.05;32.88
34205;BME280;20471;49.680;20.074;2023-06-26T11:56:32;97089.80;;;32.12;33.22
34205;BME280;20471;49.680;20.074;2023-06-26T12:01:32;97092.41;;;31.68;33.37
34205;BME280;20471;49.680;20.074;2023-06-26T12:04:05;97093.02;;;31.31;33.69
34205;BME280;20471;49.680;20.074;2023-06-26T12:06:36;97092.23;;;30.90;33.88
34205;BME280;20471;49.680;20.074;2023-06-26T12:09:06;97088.77;;;30.72;34.06
34205;BME280;20471;49.680;20.074;2023-06-26T12:11:44;97086.27;;;30.57;34.04
34205;BME280;20471;49.680;20.074;2023-06-26T12:14:14;97079.54;;;30.38;34.51
34205;BME280;20471;49.680;20.074;2023-06-26T12:16:42;97076.90;;;30.31;34.24
34205;BME280;20471;49.680;20.074;2023-06-26T12:19:10;97083.41;;;30.14;33.84
34205;BME280;20471;49.680;20.074;2023-06-26T12:24:08;97084.41;;;29.75;34.36
34205;BME280;20471;49.680;20.074;2023-06-26T12:26:36;97081.48;;;29.51;34.58
34205;BME280;20471;49.680;20.074;2023-06-26T12:29:08;97078.20;;;29.28;34.61
34205;BME280;20471;49.680;20.074;2023-06-26T12:31:45;97073.66;;;29.04;34.89
34205;BME280;20471;49.680;20.074;2023-06-26T12:34:15;97071.10;;;29.02;35.38
34205;BME280;20471;49.680;20.074;2023-06-26T12:36:48;97071.10;;;29.19;35.30
34205;BME280;20471;49.680;20.074;2023-06-26T12:39:18;97071.25;;;29.37;35.33
34205;BME280;20471;49.680;20.074;2023-06-26T12:41:55;97072.11;;;29.41;34.58
34205;BME280;20471;49.680;20.074;2023-06-26T12:44:27;97070.58;;;29.26;34.42
34205;BME280;20471;49.680;20.074;2023-06-26T12:47:01;97065.65;;;29.02;34.21
34205;BME280;20471;49.680;20.074;2023-06-26T12:51:59;97060.90;;;28.82;35.16
34205;BME280;20471;49.680;20.074;2023-06-26T12:54:28;97053.56;;;28.97;35.03
34205;BME280;20471;49.680;20.074;2023-06-26T12:56:56;97055.17;;;29.23;35.06
34205;BME280;20471;49.680;20.074;2023-06-26T12:59:23;97051.83;;;29.48;34.77
34205;BME280;20471;49.680;20.074;2023-06-26T13:01:51;97048.46;;;29.58;34.72
34205;BME280;20471;49.680;20.074;2023-06-26T13:04:19;97052.09;;;29.32;35.01
34205;BME280;20471;49.680;20.074;2023-06-26T13:06:47;97049.85;;;29.13;34.96
34205;BME280;20471;49.680;20.074;2023-06-26T13:09:15;97048.27;;;29.17;35.42
34205;BME280;20471;49.680;20.074;2023-06-26T13:11:43;97045.52;;;29.14;35.97
34205;BME280;20471;49.680;20.074;2023-06-26T13:14:11;97044.31;;;29.09;35.95
34205;BME280;20471;49.680;20.074;2023-06-26T13:16:40;97040.77;;;29.17;36.08
34205;BME280;20471;49.680;20.074;2023-06-26T13:19:08;97037.62;;;29.30;36.31
34205;BME280;20471;49.680;20.074;2023-06-26T13:21:36;97033.00;;;29.44;35.83
34205;BME280;20471;49.680;20.074;2023-06-26T13:24:04;97031.55;;;29.43;35.59
34205;BME280;20471;49.680;20.074;2023-06-26T13:26:32;97030.11;;;29.43;35.89
34205;BME280;20471;49.680;20.074;2023-06-26T13:28:59;97029.41;;;29.50;35.61
34205;BME280;20471;49.680;20.074;2023-06-26T13:31:27;97026.59;;;29.65;35.11
34205;BME280;20471;49.680;20.074;2023-06-26T13:33:57;97022.39;;;29.81;35.10
34205;BME280;20471;49.680;20.074;2023-06-26T13:36:25;97020.27;;;29.85;35.79
34205;BME280;20471;49.680;20.074;2023-06-26T13:38:53;97020.36;;;29.78;35.58
34205;BME280;20471;49.680;20.074;2023-06-26T13:41:23;97018.82;;;29.79;35.12
34205;BME280;20471;49.680;20.074;2023-06-26T13:43:51;97013.70;;;29.78;35.10
34205;BME280;20471;49.680;20.074;2023-06-26T13:46:19;97009.39;;;29.61;35.01
34205;BME280;20471;49.680;20.074;2023-06-26T13:48:47;97007.34;;;29.36;35.01
34205;BME280;20471;49.680;20.074;2023-06-26T13:51:15;97004.85;;;29.16;35.03
34205;BME280;20471;49.680;20.074;2023-06-26T13:53:43;97006.95;;;29.01;34.90
34205;BME280;20471;49.680;20.074;2023-06-26T13:56:10;97005.61;;;28.93;35.44
34205;BME280;20471;49.680;20.074;2023-06-26T13:58:38;97004.01;;;28.94;36.40
34205;BME280;20471;49.680;20.074;2023-06-26T14:01:08;97001.83;;;29.04;36.21
34205;BME280;20471;49.680;20.074;2023-06-26T14:03:36;96997.90;;;29.25;36.05
34205;BME280;20471;49.680;20.074;2023-06-26T14:06:04;96995.77;;;29.34;35.53
34205;BME280;20471;49.680;20.074;2023-06-26T14:08:31;96993.74;;;29.41;34.68
34205;BME280;20471;49.680;20.074;2023-06-26T14:10:59;96994.32;;;29.51;34.59
34205;BME280;20471;49.680;20.074;2023-06-26T14:13:27;96997.19;;;29.34;34.68
34205;BME280;20471;49.680;20.074;2023-06-26T14:15:55;96992.63;;;29.09;35.02
34205;BME280;20471;49.680;20.074;2023-06-26T14:18:23;96985.41;;;28.70;35.43
34205;BME280;20471;49.680;20.074;2023-06-26T14:20:51;96984.98;;;28.44;35.60
34205;BME280;20471;49.680;20.074;2023-06-26T14:23:20;96981.14;;;28.27;35.42
34205;BME280;20471;49.680;20.074;2023-06-26T14:25:47;96983.96;;;28.28;36.06
34205;BME280;20471;49.680;20.074;2023-06-26T14:28:15;96979.27;;;28.40;35.47
34205;BME280;20471;49.680;20.074;2023-06-26T14:30:43;96976.97;;;28.63;35.48
34205;BME280;20471;49.680;20.074;2023-06-26T14:33:11;96976.32;;;28.89;35.30
34205;BME280;20471;49.680;20.074;2023-06-26T14:35:38;96974.18;;;29.06;35.31
34205;BME280;20471;49.680;20.074;2023-06-26T14:38:06;96971.49;;;29.13;35.11
34205;BME280;20471;49.680;20.074;2023-06-26T14:40:34;96968.52;;;29.17;35.01
34205;BME280;20471;49.680;20.074;2023-06-26T14:43:02;96966.48;;;29.17;34.71
34205;BME280;20471;49.680;20.074;2023-06-26T14:45:30;96965.70;;;29.13;34.74
34205;BME280;20471;49.680;20.074;2023-06-26T14:47:57;96962.86;;;29.27;34.32
34205;BME280;20471;49.680;20.074;2023-06-26T14:50:25;96961.30;;;29.39;34.17
34205;BME280;20471;49.680;20.074;2023-06-26T14:52:53;96959.04;;;29.27;34.17
34205;BME280;20471;49.680;20.074;2023-06-26T14:55:21;96952.18;;;29.26;34.02